Gardiner, Maine
Current Conditions -  °F | °C
As of 12:53 AM on Sunday 23 Nov 2014 (Local Time) from KAUG Reporting Station
Overcast Overcast  
Wind Chill: 30°   Ceiling: 3900
Heat Index: 34°   Visibility: 10mi
Dew Point: 14°   Wind: 5mph
Humidity: 44%   Direction: 190°S
Pressure: 29.93"   Gusts: NA
Location:  44.23°N, 69.77°W
Report Text: KAUG 230553Z AUTO 19004KT 10SM BKN039 OVC055 01/M10 A2993 RMK AO2 SLP141 T00111100 10017 21006 51001
Loading
Personal Weather Stations






























Interactive Weather Map New forecast layout! Learn more

10-Day Weather Forecast

Advertisements
Track Severe Weather on mobile